createdAt,value
2022-12-03T00:00:19.641Z,47.70
2022-12-03T00:03:07.495Z,51.20
2022-12-03T00:05:35.347Z,46.50
2022-12-03T00:08:04.198Z,49.60
2022-12-03T00:10:32.238Z,49.40
2022-12-03T00:12:59.982Z,47.90
2022-12-03T00:15:27.897Z,56.90
2022-12-03T00:17:55.723Z,48.80
2022-12-03T00:20:25.257Z,51.50
2022-12-03T00:22:53.084Z,51.00
2022-12-03T00:25:21.052Z,51.20
2022-12-03T00:27:48.821Z,48.30
2022-12-03T00:30:16.892Z,50.00
2022-12-03T00:32:44.738Z,46.10
2022-12-03T00:35:12.624Z,40.60
2022-12-03T00:37:40.402Z,45.10
2022-12-03T00:40:08.889Z,41.10
2022-12-03T00:42:36.710Z,43.70
2022-12-03T00:45:06.058Z,41.20
2022-12-03T00:47:34.217Z,43.10
2022-12-03T00:50:01.984Z,39.60
2022-12-03T00:52:29.846Z,33.10
2022-12-03T00:54:57.615Z,38.20
2022-12-03T00:57:25.376Z,40.60
2022-12-03T00:59:53.248Z,37.40
2022-12-03T01:02:21.622Z,43.50
2022-12-03T01:04:49.538Z,40.30
2022-12-03T01:07:17.329Z,37.00
2022-12-03T01:09:45.129Z,37.20
2022-12-03T01:12:12.991Z,38.50
2022-12-03T01:14:40.873Z,39.00
2022-12-03T01:17:08.930Z,39.10
2022-12-03T01:19:37.113Z,42.90
2022-12-03T01:22:04.979Z,39.20
2022-12-03T01:24:33.132Z,42.10
2022-12-03T01:27:01.024Z,42.40
2022-12-03T01:29:28.714Z,42.90
2022-12-03T01:32:10.780Z,41.50
2022-12-03T01:34:38.523Z,44.60
2022-12-03T01:37:06.211Z,44.60
2022-12-03T01:39:34.033Z,48.70
2022-12-03T01:42:03.204Z,43.40
2022-12-03T01:44:34.686Z,47.10
2022-12-03T01:47:06.361Z,42.00
2022-12-03T01:49:45.665Z,43.20
2022-12-03T01:52:17.172Z,41.30
2022-12-03T01:54:50.208Z,36.70
2022-12-03T01:57:24.634Z,44.00
2022-12-03T01:59:53.953Z,37.80
2022-12-03T02:02:25.054Z,40.20
2022-12-03T02:04:54.212Z,41.20
2022-12-03T02:07:34.711Z,39.80
2022-12-03T02:10:04.275Z,41.10
2022-12-03T02:12:36.562Z,36.50
2022-12-03T02:15:06.301Z,41.10
2022-12-03T02:17:34.804Z,37.00
2022-12-03T02:20:08.903Z,44.20
2022-12-03T02:22:50.289Z,40.40
2022-12-03T02:25:20.946Z,41.30
2022-12-03T02:27:49.713Z,42.90
2022-12-03T02:30:20.822Z,39.30
2022-12-03T02:32:49.670Z,46.70
2022-12-03T02:35:21.906Z,39.50
2022-12-03T02:37:54.374Z,40.00
2022-12-03T02:40:25.825Z,46.10
2022-12-03T02:42:57.036Z,37.90
2022-12-03T02:45:28.699Z,34.60
2022-12-03T02:48:01.360Z,35.60
2022-12-03T02:50:33.873Z,37.10
2022-12-03T02:53:05.935Z,37.60
2022-12-03T02:55:37.404Z,40.80
2022-12-03T02:58:06.458Z,43.80
2022-12-03T03:00:36.057Z,44.30
2022-12-03T03:03:06.211Z,39.00
2022-12-03T03:05:37.823Z,44.20
2022-12-03T03:08:07.976Z,40.10
2022-12-03T03:10:38.174Z,41.00
2022-12-03T03:13:10.911Z,44.40
2022-12-03T03:15:40.692Z,41.90
2022-12-03T03:18:10.474Z,42.80
2022-12-03T03:20:39.176Z,45.80
2022-12-03T03:23:15.877Z,40.10
2022-12-03T03:25:48.668Z,42.70
2022-12-03T03:28:16.793Z,39.70
2022-12-03T03:30:45.215Z,38.60
2022-12-03T03:33:15.501Z,34.80
2022-12-03T03:35:45.243Z,37.80
2022-12-03T03:38:13.526Z,37.70
2022-12-03T03:40:42.231Z,37.50
2022-12-03T03:43:10.906Z,33.80
2022-12-03T03:45:38.919Z,37.70
2022-12-03T03:48:07.680Z,39.20
2022-12-03T03:50:36.039Z,35.50
2022-12-03T03:53:04.783Z,37.20
2022-12-03T03:55:33.681Z,41.20
2022-12-03T03:58:01.792Z,35.10
2022-12-03T04:00:30.996Z,42.00
2022-12-03T04:02:58.859Z,40.50
2022-12-03T04:05:27.751Z,36.20
2022-12-03T04:07:55.603Z,42.70
2022-12-03T04:10:41.893Z,36.50
2022-12-03T04:13:09.506Z,38.20
2022-12-03T04:15:37.414Z,39.90
2022-12-03T04:18:22.411Z,38.00
2022-12-03T04:20:50.523Z,39.00
2022-12-03T04:23:18.263Z,44.90
2022-12-03T04:26:02.914Z,39.60
2022-12-03T04:28:42.956Z,42.90
2022-12-03T04:31:23.305Z,38.30
2022-12-03T04:34:03.337Z,44.70
2022-12-03T04:36:31.197Z,46.60
2022-12-03T04:38:59.009Z,46.70
2022-12-03T04:41:26.814Z,44.80
2022-12-03T04:44:13.974Z,47.10
2022-12-03T04:46:41.766Z,45.90
2022-12-03T04:49:09.487Z,49.70
2022-12-03T04:51:37.300Z,49.70
2022-12-03T04:54:05.236Z,39.80
2022-12-03T04:56:38.160Z,43.30
2022-12-03T04:59:08.087Z,42.60
2022-12-03T05:01:39.141Z,44.30
2022-12-03T05:04:07.295Z,40.60
2022-12-03T05:06:35.997Z,43.40
2022-12-03T05:09:04.011Z,38.60
2022-12-03T05:11:31.879Z,40.90
2022-12-03T05:13:59.667Z,45.10
2022-12-03T05:16:29.818Z,40.10
2022-12-03T05:18:57.868Z,43.90
2022-12-03T05:21:25.744Z,37.40
2022-12-03T05:23:53.713Z,35.70
2022-12-03T05:26:21.762Z,34.50
2022-12-03T05:28:50.068Z,42.00
2022-12-03T05:31:18.109Z,46.10
2022-12-03T05:33:45.990Z,46.10
2022-12-03T05:36:13.761Z,42.60
2022-12-03T05:38:41.620Z,40.70
2022-12-03T05:41:27.411Z,41.70
2022-12-03T05:43:55.456Z,45.40
2022-12-03T05:46:23.322Z,45.60
2022-12-03T05:48:51.134Z,42.60
2022-12-03T05:51:18.976Z,47.50
2022-12-03T05:53:46.781Z,47.30
2022-12-03T05:56:14.501Z,50.20
2022-12-03T05:58:42.372Z,48.20
2022-12-03T06:01:10.243Z,54.50
2022-12-03T06:03:38.113Z,48.30
2022-12-03T06:06:06.292Z,53.30
2022-12-03T06:08:34.038Z,68.20
2022-12-03T06:11:01.753Z,60.30
2022-12-03T06:13:29.895Z,63.20
2022-12-03T06:15:57.726Z,62.10
2022-12-03T06:18:25.486Z,60.40
2022-12-03T06:20:53.397Z,64.00
2022-12-03T06:23:21.098Z,71.50
2022-12-03T06:25:50.542Z,60.20
2022-12-03T06:28:18.493Z,62.10
2022-12-03T06:30:46.242Z,55.60
2022-12-03T06:33:14.242Z,65.00
2022-12-03T06:35:42.214Z,49.60
2022-12-03T06:38:10.089Z,55.10
2022-12-03T06:40:38.280Z,47.50
2022-12-03T06:43:06.156Z,51.60
2022-12-03T06:45:33.928Z,53.10
2022-12-03T06:48:02.040Z,48.70
2022-12-03T06:50:30.188Z,54.30
2022-12-03T06:52:59.550Z,47.60
2022-12-03T06:55:27.305Z,50.00
2022-12-03T06:57:55.057Z,53.80
2022-12-03T07:00:23.148Z,56.10
2022-12-03T07:02:52.013Z,61.30
2022-12-03T07:05:20.091Z,68.80
2022-12-03T07:07:52.253Z,69.70
2022-12-03T07:10:20.244Z,64.40
2022-12-03T07:12:48.006Z,67.20
2022-12-03T07:15:15.975Z,62.30
2022-12-03T07:17:43.896Z,62.10
2022-12-03T07:20:12.578Z,61.10
2022-12-03T07:22:40.271Z,60.00
2022-12-03T07:25:09.054Z,69.60
2022-12-03T07:27:39.913Z,59.40
2022-12-03T07:30:08.620Z,65.50
2022-12-03T07:32:36.440Z,58.40
2022-12-03T07:35:07.168Z,59.40
2022-12-03T07:37:35.261Z,58.30
2022-12-03T07:40:04.650Z,55.00
2022-12-03T07:42:33.086Z,45.00
2022-12-03T07:45:00.796Z,47.80
2022-12-03T07:47:28.570Z,55.40
2022-12-03T07:49:56.269Z,58.50
2022-12-03T07:52:24.006Z,54.00
2022-12-03T07:54:52.195Z,58.20
2022-12-03T07:57:20.224Z,51.30
2022-12-03T07:59:51.363Z,50.50
2022-12-03T08:02:21.595Z,53.60
2022-12-03T08:04:50.364Z,56.70
2022-12-03T08:07:18.509Z,60.90
2022-12-03T08:09:46.609Z,59.80
2022-12-03T08:12:18.125Z,67.90
2022-12-03T08:14:45.804Z,60.70
2022-12-03T08:17:14.757Z,72.70
2022-12-03T08:19:45.919Z,71.00
2022-12-03T08:22:15.664Z,68.00
2022-12-03T08:24:43.810Z,70.50
2022-12-03T08:27:19.749Z,61.20
2022-12-03T08:29:48.053Z,62.20
2022-12-03T08:32:16.392Z,73.00
2022-12-03T08:34:44.746Z,68.60
2022-12-03T08:37:18.346Z,70.20
2022-12-03T08:39:49.229Z,65.00
2022-12-03T08:42:52.424Z,71.60
2022-12-03T08:45:40.768Z,76.40
2022-12-03T08:50:48.315Z,77.90
2022-12-03T08:53:37.313Z,80.50
2022-12-03T08:56:19.820Z,81.10
2022-12-03T08:58:53.027Z,73.20
2022-12-03T09:01:31.302Z,72.90
2022-12-03T09:04:16.224Z,68.10
2022-12-03T09:06:44.121Z,60.40
2022-12-03T09:09:11.859Z,64.80
2022-12-03T09:11:40.284Z,62.70
2022-12-03T09:14:08.283Z,57.50
2022-12-03T09:16:36.178Z,50.90
2022-12-03T09:19:04.707Z,56.70
2022-12-03T09:21:33.096Z,50.70
2022-12-03T09:24:00.829Z,58.10
2022-12-03T09:26:29.761Z,52.40
2022-12-03T09:28:57.512Z,46.20
2022-12-03T09:31:25.622Z,54.30
2022-12-03T09:33:54.124Z,51.20
2022-12-03T09:36:21.937Z,47.30
2022-12-03T09:38:50.213Z,50.70
2022-12-03T09:41:18.105Z,51.50
2022-12-03T09:46:36.357Z,49.10
2022-12-03T09:49:12.326Z,47.10
2022-12-03T09:51:45.490Z,56.90
2022-12-03T09:54:23.982Z,48.50
2022-12-03T09:56:53.821Z,53.10
2022-12-03T09:59:24.241Z,62.60
2022-12-03T10:01:53.309Z,61.30
2022-12-03T10:04:21.418Z,60.00
2022-12-03T10:06:49.920Z,63.60
2022-12-03T10:09:25.171Z,61.50
2022-12-03T10:11:53.073Z,65.30
2022-12-03T10:14:21.076Z,69.60
2022-12-03T10:16:49.327Z,70.30
2022-12-03T10:19:24.375Z,66.10
2022-12-03T10:21:52.156Z,54.60
2022-12-03T10:24:23.969Z,48.30
2022-12-03T10:26:55.092Z,52.00
2022-12-03T10:29:32.921Z,50.50
2022-12-03T10:32:06.071Z,43.10
2022-12-03T10:34:37.507Z,44.30
2022-12-03T10:37:11.837Z,41.80
2022-12-03T10:39:58.501Z,45.10
2022-12-03T10:42:30.034Z,42.10
2022-12-03T10:45:19.174Z,37.30
2022-12-03T10:48:05.981Z,35.10
2022-12-03T10:50:34.769Z,36.00
2022-12-03T10:53:03.173Z,35.40
2022-12-03T10:55:39.842Z,33.10
2022-12-03T10:58:24.746Z,30.00
2022-12-03T11:00:55.106Z,33.90
2022-12-03T11:03:26.811Z,32.60
2022-12-03T11:05:56.280Z,35.10
2022-12-03T11:08:27.791Z,38.50
2022-12-03T11:11:00.768Z,31.00
2022-12-03T11:13:50.213Z,34.40
2022-12-03T11:16:49.071Z,34.00
2022-12-03T11:19:37.357Z,35.00
2022-12-03T11:22:26.690Z,32.00
2022-12-03T11:25:31.295Z,35.30
2022-12-03T11:28:31.088Z,31.10
2022-12-03T11:31:02.778Z,35.50
2022-12-03T11:33:33.934Z,30.60
2022-12-03T11:36:10.202Z,32.20
2022-12-03T11:38:52.405Z,35.20
2022-12-03T11:41:29.074Z,34.80
2022-12-03T11:43:59.492Z,38.60
2022-12-03T11:46:43.594Z,29.10
2022-12-03T11:49:38.625Z,32.70
2022-12-03T11:52:23.645Z,33.50
2022-12-03T11:54:56.398Z,29.80
2022-12-03T11:57:28.666Z,30.90
2022-12-03T11:59:59.033Z,34.10
2022-12-03T12:02:26.885Z,38.30
2022-12-03T12:04:54.842Z,36.40
2022-12-03T12:07:42.625Z,30.40
2022-12-03T12:10:11.520Z,35.50
2022-12-03T12:12:51.133Z,36.90
2022-12-03T12:15:35.230Z,32.50
2022-12-03T12:18:33.349Z,31.40
2022-12-03T12:21:33.127Z,33.70
2022-12-03T12:24:31.001Z,28.40
2022-12-03T12:27:02.915Z,29.40
2022-12-03T12:29:31.204Z,29.60
2022-12-03T12:32:12.074Z,32.70
2022-12-03T12:34:41.930Z,32.90
2022-12-03T12:37:28.345Z,31.80
2022-12-03T12:39:57.330Z,30.80
2022-12-03T12:42:31.557Z,29.00
2022-12-03T12:45:09.049Z,31.30
2022-12-03T12:47:37.594Z,34.00
2022-12-03T12:50:10.716Z,30.20
2022-12-03T12:52:48.702Z,34.30
2022-12-03T12:55:17.405Z,31.70
2022-12-03T12:57:45.189Z,30.90
2022-12-03T13:00:18.074Z,34.40
2022-12-03T13:02:51.573Z,39.40
2022-12-03T13:05:22.050Z,33.70
2022-12-03T13:07:52.860Z,33.80
2022-12-03T13:10:32.563Z,40.10
2022-12-03T13:13:16.294Z,41.80
2022-12-03T13:15:57.423Z,34.60
2022-12-03T13:18:33.223Z,39.50
2022-12-03T13:21:33.304Z,42.60
2022-12-03T13:24:01.695Z,43.90
2022-12-03T13:26:45.439Z,39.40
2022-12-03T13:29:16.914Z,42.20
2022-12-03T13:31:59.846Z,41.70
2022-12-03T13:34:33.830Z,42.90
2022-12-03T13:37:02.757Z,40.90
2022-12-03T13:39:35.033Z,38.70
2022-12-03T13:42:46.428Z,40.20
2022-12-03T13:45:31.405Z,36.10
2022-12-03T13:48:02.858Z,36.40
2022-12-03T13:50:38.049Z,35.80
2022-12-03T13:53:22.387Z,40.80
2022-12-03T13:55:54.306Z,32.50
2022-12-03T13:58:22.097Z,34.30
2022-12-03T14:00:50.018Z,34.90
2022-12-03T14:03:17.862Z,35.40
2022-12-03T14:05:45.706Z,37.20
2022-12-03T14:08:13.620Z,36.40
2022-12-03T14:10:41.516Z,35.50
2022-12-03T14:13:10.036Z,35.90
2022-12-03T14:15:38.657Z,35.30
2022-12-03T14:18:06.701Z,35.70
2022-12-03T14:20:35.116Z,39.70
2022-12-03T14:23:02.936Z,39.30
2022-12-03T14:25:30.742Z,39.30
2022-12-03T14:28:00.647Z,41.20
2022-12-03T14:30:28.697Z,37.70
2022-12-03T14:32:56.402Z,41.30
2022-12-03T14:35:24.268Z,42.80
2022-12-03T14:37:52.097Z,41.00
2022-12-03T14:40:22.016Z,42.00
2022-12-03T14:42:50.335Z,46.70
2022-12-03T14:45:18.127Z,44.60
2022-12-03T14:47:45.872Z,45.70
2022-12-03T14:50:14.571Z,46.30
2022-12-03T14:52:43.393Z,50.60
2022-12-03T14:55:11.113Z,45.20
2022-12-03T14:57:38.926Z,47.70
2022-12-03T15:00:07.551Z,46.60
2022-12-03T15:02:35.669Z,54.40
2022-12-03T15:05:03.820Z,51.00
2022-12-03T15:07:32.092Z,47.20
2022-12-03T15:10:00.846Z,48.30
2022-12-03T15:12:28.581Z,49.30
2022-12-03T15:14:56.308Z,50.20
2022-12-03T15:17:31.267Z,46.70
2022-12-03T15:19:59.698Z,52.30
2022-12-03T15:22:27.418Z,47.20
2022-12-03T15:24:55.167Z,55.70
2022-12-03T15:27:23.451Z,42.30
2022-12-03T15:29:51.570Z,47.70
2022-12-03T15:32:19.709Z,49.70
2022-12-03T15:34:47.595Z,48.20
2022-12-03T15:37:15.337Z,51.40
2022-12-03T15:39:48.483Z,51.10
2022-12-03T15:42:16.784Z,48.60
2022-12-03T15:44:46.872Z,49.60
2022-12-03T15:47:14.555Z,52.90
2022-12-03T15:49:42.401Z,75.20
2022-12-03T15:52:10.100Z,47.90
2022-12-03T15:54:37.762Z,76.40
2022-12-03T15:57:05.552Z,66.50
2022-12-03T15:59:33.221Z,66.30
2022-12-03T16:02:01.013Z,70.80
2022-12-03T16:04:28.988Z,62.90
2022-12-03T16:06:56.772Z,91.50
2022-12-03T16:09:27.458Z,74.60
2022-12-03T16:11:55.626Z,64.70
2022-12-03T16:14:23.486Z,62.40
2022-12-03T16:16:51.940Z,73.30
2022-12-03T16:19:19.778Z,114.90
2022-12-03T16:21:47.466Z,72.00
2022-12-03T16:24:15.257Z,62.50
2022-12-03T16:26:43.071Z,81.10
2022-12-03T16:29:10.687Z,85.10
2022-12-03T16:31:38.543Z,69.30
2022-12-03T16:34:06.326Z,75.50
2022-12-03T16:36:34.635Z,80.70
2022-12-03T16:39:02.414Z,60.40
2022-12-03T16:41:30.326Z,55.20
2022-12-03T16:43:58.170Z,57.30
2022-12-03T16:46:26.595Z,71.70
2022-12-03T16:48:57.868Z,59.40
2022-12-03T16:51:26.821Z,57.00
2022-12-03T16:53:55.014Z,62.20
2022-12-03T16:56:22.789Z,60.30
2022-12-03T16:58:50.583Z,66.50
2022-12-03T17:01:18.416Z,60.80
2022-12-03T17:03:46.351Z,49.10
2022-12-03T17:06:14.061Z,54.90
2022-12-03T17:08:47.380Z,59.30
2022-12-03T17:11:17.440Z,61.00
2022-12-03T17:13:45.137Z,66.60
2022-12-03T17:16:13.057Z,81.80
2022-12-03T17:18:40.968Z,72.70
2022-12-03T17:21:08.763Z,96.20
2022-12-03T17:23:38.113Z,76.50
2022-12-03T17:26:07.226Z,108.00
2022-12-03T17:28:35.533Z,120.10
2022-12-03T17:31:03.385Z,139.70
2022-12-03T17:33:31.693Z,67.00
2022-12-03T17:35:59.467Z,86.00
2022-12-03T17:38:27.272Z,127.30
2022-12-03T17:40:55.595Z,129.30
2022-12-03T17:43:23.520Z,104.30
2022-12-03T17:45:51.843Z,66.00
2022-12-03T17:48:19.722Z,69.90
2022-12-03T17:50:48.580Z,88.90
2022-12-03T17:53:16.312Z,111.10
2022-12-03T17:55:45.173Z,102.30
2022-12-03T17:58:13.577Z,75.20
2022-12-03T18:00:41.704Z,101.90
2022-12-03T18:03:09.645Z,47.00
2022-12-03T18:05:37.544Z,61.60
2022-12-03T18:08:06.141Z,109.70
2022-12-03T18:10:33.950Z,86.30
2022-12-03T18:13:02.420Z,40.10
2022-12-03T18:15:31.951Z,47.40
2022-12-03T18:17:59.856Z,53.80
2022-12-03T18:20:27.724Z,38.70
2022-12-03T18:22:57.109Z,57.30
2022-12-03T18:25:25.806Z,94.70
2022-12-03T18:27:53.919Z,85.60
2022-12-03T18:30:22.078Z,65.80
2022-12-03T18:32:50.643Z,87.90
2022-12-03T18:35:18.455Z,84.60
2022-12-03T18:37:46.469Z,104.90
2022-12-03T18:40:20.108Z,105.90
2022-12-03T18:42:48.564Z,83.00
2022-12-03T18:45:16.847Z,138.90
2022-12-03T18:47:45.214Z,164.40
2022-12-03T18:50:13.497Z,99.10
2022-12-03T18:52:41.289Z,79.10
2022-12-03T18:55:17.648Z,70.00
2022-12-03T18:57:46.018Z,88.30
2022-12-03T19:00:14.899Z,91.50
2022-12-03T19:03:02.254Z,116.60
2022-12-03T19:05:33.173Z,123.90
2022-12-03T19:08:02.009Z,53.90
2022-12-03T19:10:29.915Z,91.70
2022-12-03T19:12:57.679Z,123.90
2022-12-03T19:15:26.439Z,88.70
2022-12-03T19:17:54.401Z,110.50
2022-12-03T19:20:22.306Z,62.90
2022-12-03T19:22:50.180Z,168.90
2022-12-03T19:25:17.997Z,83.50
2022-12-03T19:27:46.597Z,79.10
2022-12-03T19:30:14.515Z,68.50
2022-12-03T19:32:42.490Z,78.20
2022-12-03T19:35:11.451Z,84.00
2022-12-03T19:37:39.879Z,65.70
2022-12-03T19:40:10.124Z,61.80
2022-12-03T19:42:38.088Z,68.70
2022-12-03T19:45:06.814Z,58.20
2022-12-03T19:47:35.784Z,119.10
2022-12-03T19:50:05.504Z,81.10
2022-12-03T19:52:36.495Z,132.50
2022-12-03T19:55:05.130Z,110.60
2022-12-03T19:57:33.538Z,78.00
2022-12-03T20:00:01.402Z,85.40
2022-12-03T20:02:29.379Z,125.60
2022-12-03T20:04:57.473Z,111.60
2022-12-03T20:07:25.221Z,113.60
2022-12-03T20:09:56.254Z,113.40
2022-12-03T20:12:24.381Z,112.20
2022-12-03T20:14:52.569Z,106.00
2022-12-03T20:17:20.401Z,332.20
2022-12-03T20:19:48.170Z,172.60
2022-12-03T20:22:16.160Z,83.00
2022-12-03T20:24:43.824Z,48.00
2022-12-03T20:27:11.575Z,203.40
2022-12-03T20:29:39.668Z,98.40
2022-12-03T20:32:07.716Z,44.80
2022-12-03T20:34:37.483Z,88.70
2022-12-03T20:37:05.312Z,139.20
2022-12-03T20:39:33.092Z,89.70
2022-12-03T20:42:00.943Z,76.50
2022-12-03T20:44:28.899Z,71.40
2022-12-03T20:46:56.815Z,59.50
2022-12-03T20:49:24.761Z,66.30
2022-12-03T20:51:52.571Z,146.30
2022-12-03T20:54:20.445Z,100.10
2022-12-03T20:56:50.938Z,225.50
2022-12-03T20:59:19.716Z,217.20
2022-12-03T21:01:47.562Z,128.10
2022-12-03T21:04:16.198Z,174.80
2022-12-03T21:06:46.119Z,101.00
2022-12-03T21:09:14.006Z,116.90
2022-12-03T21:11:42.640Z,128.30
2022-12-03T21:14:11.437Z,185.80
2022-12-03T21:17:06.638Z,182.80
2022-12-03T21:19:27.928Z,178.20
2022-12-03T21:21:55.714Z,265.50
2022-12-03T21:24:23.911Z,271.30
2022-12-03T21:26:51.654Z,284.20
2022-12-03T21:29:19.457Z,298.30
2022-12-03T21:31:47.226Z,230.60
2022-12-03T21:34:15.203Z,211.10
2022-12-03T21:36:44.080Z,90.00
2022-12-03T21:39:11.874Z,53.20
2022-12-03T21:41:39.724Z,99.70
2022-12-03T21:44:07.509Z,175.90
2022-12-03T21:47:10.410Z,125.80
2022-12-03T21:49:23.340Z,68.90
2022-12-03T21:51:51.077Z,50.40
2022-12-03T21:54:18.867Z,87.80
2022-12-03T21:56:46.745Z,91.90
2022-12-03T21:59:14.744Z,97.50
2022-12-03T22:02:00.836Z,78.60
2022-12-03T22:04:39.899Z,107.20
2022-12-03T22:07:08.987Z,91.00
2022-12-03T22:09:36.873Z,95.30
2022-12-03T22:12:04.941Z,73.90
2022-12-03T22:14:33.545Z,137.90
2022-12-03T22:17:01.367Z,89.10
2022-12-03T22:19:29.242Z,128.70
2022-12-03T22:21:57.034Z,104.80
2022-12-03T22:24:24.888Z,134.10
2022-12-03T22:26:54.672Z,117.10
2022-12-03T22:29:23.015Z,65.60
2022-12-03T22:31:51.371Z,126.00
2022-12-03T22:34:21.308Z,100.50
2022-12-03T22:36:49.468Z,184.70
2022-12-03T22:39:17.191Z,193.80
2022-12-03T22:41:45.035Z,158.00
2022-12-03T22:44:12.984Z,204.10
2022-12-03T22:46:40.783Z,174.70
2022-12-03T22:49:09.437Z,85.40
2022-12-03T22:51:37.333Z,165.20
2022-12-03T22:54:06.360Z,241.10
2022-12-03T22:56:34.171Z,185.20
2022-12-03T22:59:05.113Z,136.80
2022-12-03T23:01:38.686Z,111.70
2022-12-03T23:04:09.010Z,179.80
2022-12-03T23:06:37.984Z,155.90
2022-12-03T23:09:07.249Z,97.70
2022-12-03T23:11:35.660Z,65.60
2022-12-03T23:14:03.769Z,76.90
2022-12-03T23:16:33.233Z,79.80
2022-12-03T23:19:02.628Z,132.80
2022-12-03T23:21:33.999Z,181.20
2022-12-03T23:24:04.430Z,193.00
2022-12-03T23:26:36.599Z,221.30
2022-12-03T23:29:06.018Z,213.90
2022-12-03T23:31:36.687Z,180.40
2022-12-03T23:34:05.269Z,191.60
2022-12-03T23:36:34.110Z,241.30
2022-12-03T23:39:02.198Z,195.20
2022-12-03T23:41:29.993Z,175.50
2022-12-03T23:43:57.926Z,143.10
2022-12-03T23:46:27.455Z,176.80
2022-12-03T23:48:58.539Z,166.90
2022-12-03T23:51:27.577Z,163.70
2022-12-03T23:53:56.436Z,106.60
2022-12-03T23:56:27.676Z,84.30
2022-12-03T23:58:57.138Z,122.50
